Time;durP1;ratioP1;P1;durP2;ratioP2;P2;SDS_P1;SDS_P2;PMS_P1;PMS_P2;Temp;Humidity;BMP_temperature;BMP_pressure;BME280_temperature;BME280_humidity;BME280_pressure;Samples;Min_cycle;Max_cycle;Signal;HPM_P1;HPM_P2
2022/10/23 00:01:53;;;;;;;23.40;9.50;;;9.50;99.90;;;;;;6300948;22;20022;-88
2022/10/23 00:04:41;;;;;;;32.67;14.48;;;9.60;99.90;;;;;;6291566;22;20435;-91
2022/10/23 00:07:28;;;;;;;20.27;11.80;;;9.70;99.90;;;;;;6278643;22;20457;-91
2022/10/23 00:10:16;;;;;;;20.33;11.75;;;9.60;99.90;;;;;;6281182;22;20434;-91
2022/10/23 00:13:07;;;;;;;24.77;12.63;;;9.60;99.90;;;;;;6281822;22;20030;-91
2022/10/23 00:15:56;;;;;;;24.15;11.85;;;9.60;99.90;;;;;;6284631;22;20318;-89
2022/10/23 00:18:44;;;;;;;24.88;11.40;;;9.50;99.90;;;;;;6288709;22;20020;-90
2022/10/23 00:21:31;;;;;;;21.65;11.73;;;9.50;99.90;;;;;;6282879;22;20027;-92
2022/10/23 00:24:19;;;;;;;21.33;11.85;;;9.40;99.90;;;;;;6258204;22;20161;-91
2022/10/23 00:27:06;;;;;;;16.15;11.15;;;9.30;99.90;;;;;;6280805;22;20033;-91
2022/10/23 00:29:55;;;;;;;20.23;11.88;;;9.30;99.90;;;;;;6281791;22;20027;-92
2022/10/23 00:32:43;;;;;;;16.70;9.85;;;9.40;99.90;;;;;;6278328;22;20020;-91
2022/10/23 00:35:32;;;;;;;24.50;11.50;;;9.30;99.90;;;;;;6279991;22;20028;-89
2022/10/23 00:38:23;;;;;;;25.20;10.82;;;9.40;99.90;;;;;;6286804;22;20039;-90
2022/10/23 00:41:17;;;;;;;22.77;11.50;;;9.40;99.90;;;;;;6287420;22;20054;-90
2022/10/23 00:44:09;;;;;;;18.08;10.75;;;9.40;99.90;;;;;;6286960;22;20070;-91
2022/10/23 00:46:57;;;;;;;;;;;9.40;99.90;;;;;;6279656;22;20081;-91
2022/10/23 00:49:45;;;;;;;16.95;9.02;;;9.40;99.90;;;;;;6279886;22;20049;-91
2022/10/23 00:52:39;;;;;;;21.90;10.32;;;9.40;99.90;;;;;;6279856;22;20484;-91
2022/10/23 00:55:28;;;;;;;20.75;8.77;;;9.40;99.90;;;;;;6279145;22;20467;-91
2022/10/23 00:58:18;;;;;;;18.60;10.40;;;9.40;99.90;;;;;;6281641;22;20110;-90
2022/10/23 01:01:23;;;;;;;19.63;10.55;;;9.40;99.90;;;;;;6280479;22;20024;-89
2022/10/23 01:04:13;;;;;;;15.75;9.07;;;9.40;99.90;;;;;;6279750;22;20055;-92
2022/10/23 01:07:14;;;;;;;13.98;9.32;;;9.40;99.90;;;;;;6280071;22;20024;-91
2022/10/23 01:10:33;;;;;;;20.75;10.15;;;9.40;99.90;;;;;;6278259;22;20023;-90
2022/10/23 01:13:32;;;;;;;19.45;11.98;;;9.60;99.90;;;;;;6278183;22;20086;-91
2022/10/23 01:16:53;;;;;;;19.05;10.27;;;9.60;99.90;;;;;;6279379;22;20019;-90
2022/10/23 01:19:43;;;;;;;19.02;9.77;;;9.50;99.90;;;;;;6277267;22;20032;-90
2022/10/23 01:22:42;;;;;;;20.27;11.05;;;9.40;99.90;;;;;;6277259;22;20027;-89
2022/10/23 01:25:44;;;;;;;16.30;10.20;;;9.40;99.90;;;;;;6278332;22;20020;-90
2022/10/23 01:28:51;;;;;;;14.90;9.38;;;9.30;99.90;;;;;;6278924;22;20443;-90
2022/10/23 01:31:43;;;;;;;15.75;9.10;;;9.40;99.90;;;;;;6281732;22;20034;-90
2022/10/23 01:34:35;;;;;;;13.80;8.38;;;9.50;99.90;;;;;;6281533;22;20039;-90
2022/10/23 01:37:48;;;;;;;18.63;8.77;;;9.60;99.90;;;;;;6278007;22;20034;-91
2022/10/23 01:41:10;;;;;;;18.08;9.95;;;9.70;99.90;;;;;;6279997;22;20047;-90
2022/10/23 01:44:14;;;;;;;22.60;9.57;;;9.80;99.90;;;;;;6283059;22;20047;-91
2022/10/23 01:47:05;;;;;;;24.50;9.88;;;9.80;99.90;;;;;;6284810;22;20026;-90
2022/10/23 01:49:56;;;;;;;19.05;9.35;;;9.80;99.90;;;;;;6279944;22;20051;-91
2022/10/23 01:52:44;;;;;;;23.42;9.20;;;9.80;99.90;;;;;;6279160;22;20019;-91
2022/10/23 01:55:40;;;;;;;24.40;10.32;;;9.90;99.90;;;;;;6280236;22;20302;-91
2022/10/23 01:58:33;;;;;;;17.83;8.85;;;10.00;99.90;;;;;;6280060;22;20415;-91
2022/10/23 02:01:24;;;;;;;15.55;8.85;;;10.00;99.90;;;;;;6284642;22;20039;-92
2022/10/23 02:04:16;;;;;;;12.93;8.32;;;10.10;99.90;;;;;;6287202;22;20027;-93
2022/10/23 02:07:04;;;;;;;17.85;9.05;;;10.20;99.90;;;;;;6284849;22;20097;-90
2022/10/23 02:09:51;;;;;;;14.00;8.20;;;10.20;99.90;;;;;;6258670;22;20023;-90
2022/10/23 02:12:51;;;;;;;15.45;8.48;;;10.20;99.90;;;;;;6279857;22;20020;-90
2022/10/23 02:16:04;;;;;;;14.32;8.15;;;10.20;99.90;;;;;;6281061;22;20052;-90
2022/10/23 02:19:01;;;;;;;13.18;8.35;;;10.30;99.90;;;;;;6290745;22;20084;-90
2022/10/23 02:21:58;;;;;;;18.45;8.57;;;10.40;99.90;;;;;;6297358;22;20152;-89
2022/10/23 02:25:05;;;;;;;19.00;8.60;;;10.50;99.90;;;;;;6299070;22;20023;-89
2022/10/23 02:27:59;;;;;;;19.50;8.38;;;10.60;99.90;;;;;;6289582;22;20044;-89
2022/10/23 02:30:57;;;;;;;12.98;8.40;;;10.60;99.90;;;;;;6280022;22;20024;-90
2022/10/23 02:33:46;;;;;;;17.42;8.30;;;10.60;99.90;;;;;;6280673;22;20074;-90
2022/10/23 02:36:33;;;;;;;11.13;7.85;;;10.70;99.90;;;;;;6279017;22;20441;-92
2022/10/23 02:39:27;;;;;;;12.38;6.93;;;10.70;99.90;;;;;;6279800;22;20438;-90
2022/10/23 02:42:29;;;;;;;15.75;7.60;;;10.70;99.90;;;;;;6277906;22;20027;-91
2022/10/23 02:45:38;;;;;;;8.90;6.90;;;10.60;99.90;;;;;;6276687;22;20109;-90
2022/10/23 02:48:40;;;;;;;8.80;6.97;;;10.50;99.90;;;;;;6278143;22;20027;-91
2022/10/23 02:51:55;;;;;;;15.90;8.13;;;10.40;99.90;;;;;;6277699;22;20055;-91
2022/10/23 02:54:52;;;;;;;9.93;6.13;;;10.30;99.90;;;;;;6275577;22;20092;-89
2022/10/23 02:57:47;;;;;;;14.45;5.90;;;10.30;99.90;;;;;;6280783;22;20071;-91
2022/10/23 03:00:38;;;;;;;8.68;6.30;;;10.30;99.90;;;;;;6278614;22;20102;-91
2022/10/23 03:03:34;;;;;;;11.45;7.47;;;10.30;99.90;;;;;;6277529;22;20032;-91
2022/10/23 03:06:21;;;;;;;11.60;6.93;;;10.30;99.90;;;;;;6277273;22;20114;-91
2022/10/23 03:09:10;;;;;;;17.05;6.90;;;10.20;99.90;;;;;;6281153;22;20123;-92
2022/10/23 03:11:58;;;;;;;9.50;6.47;;;10.10;99.90;;;;;;6279670;22;20099;-91
2022/10/23 03:14:45;;;;;;;9.48;6.47;;;10.00;99.90;;;;;;6278629;22;20095;-91
2022/10/23 03:17:32;;;;;;;16.33;6.18;;;10.10;99.90;;;;;;6279583;22;20034;-92
2022/10/23 03:20:22;;;;;;;12.45;7.38;;;10.10;99.90;;;;;;6280748;22;20429;-92
2022/10/23 03:23:12;;;;;;;10.40;6.85;;;10.10;99.90;;;;;;6282672;22;20023;-90
2022/10/23 03:26:00;;;;;;;12.18;7.60;;;10.20;99.90;;;;;;6279580;22;20024;-91
2022/10/23 03:28:48;;;;;;;11.02;6.50;;;10.20;99.90;;;;;;6281255;22;20031;-90
2022/10/23 03:31:37;;;;;;;15.15;6.95;;;10.30;99.90;;;;;;6281022;22;20019;-91
2022/10/23 03:34:24;;;;;;;13.98;7.28;;;10.40;99.90;;;;;;6287467;22;20023;-90
2022/10/23 03:37:12;;;;;;;15.40;7.25;;;10.50;99.90;;;;;;6290278;22;20031;-90
2022/10/23 03:39:59;;;;;;;9.93;6.00;;;10.50;99.90;;;;;;6284995;22;20098;-91
2022/10/23 03:42:46;;;;;;;8.77;6.18;;;10.40;99.90;;;;;;6278331;22;20055;-92
2022/10/23 03:45:35;;;;;;;9.88;6.78;;;10.50;99.90;;;;;;6278495;22;20027;-91
2022/10/23 03:48:25;;;;;;;11.02;6.28;;;10.50;99.90;;;;;;6279531;22;20498;-92
2022/10/23 03:51:12;;;;;;;9.75;5.80;;;10.40;99.90;;;;;;6284027;22;20106;-91
2022/10/23 03:53:59;;;;;;;10.32;6.45;;;10.30;99.90;;;;;;6283225;22;20016;-92
2022/10/23 03:56:52;;;;;;;9.25;6.40;;;10.20;99.90;;;;;;6278506;22;20023;-93
2022/10/23 03:59:43;;;;;;;11.80;6.25;;;10.10;99.90;;;;;;6279467;22;20445;-91
2022/10/23 04:02:30;;;;;;;14.55;6.18;;;10.00;99.90;;;;;;6281212;22;20113;-91
2022/10/23 04:05:18;;;;;;;8.70;5.70;;;9.90;99.90;;;;;;6280331;22;20027;-92
2022/10/23 04:08:05;;;;;;;13.35;6.55;;;9.90;99.90;;;;;;6280971;22;20034;-90
2022/10/23 04:10:53;;;;;;;12.02;6.22;;;10.10;99.90;;;;;;6279331;22;20360;-92
2022/10/23 04:13:40;;;;;;;12.10;7.10;;;10.10;99.90;;;;;;6278222;22;20024;-91
2022/10/23 04:16:31;;;;;;;12.05;6.28;;;10.10;99.90;;;;;;6281961;22;20170;-91
2022/10/23 04:19:18;;;;;;;13.27;6.18;;;10.20;99.90;;;;;;6279886;22;20303;-92
2022/10/23 04:22:05;;;;;;;8.70;6.03;;;10.20;99.90;;;;;;6281953;22;20023;-92
2022/10/23 04:24:53;;;;;;;13.75;8.25;;;10.30;99.90;;;;;;6279908;22;20124;-92
2022/10/23 04:27:40;;;;;;;15.95;6.63;;;10.30;99.90;;;;;;6279921;22;20034;-92
2022/10/23 04:30:27;;;;;;;9.38;5.85;;;10.40;99.90;;;;;;6279117;22;20046;-91
2022/10/23 04:33:15;;;;;;;13.80;6.18;;;10.50;99.90;;;;;;6278673;22;20067;-93
2022/10/23 04:36:03;;;;;;;13.38;6.22;;;10.50;99.90;;;;;;6286873;22;20142;-92
2022/10/23 04:38:52;;;;;;;8.02;5.55;;;10.60;99.90;;;;;;6300450;22;20151;-91
2022/10/23 04:41:39;;;;;;;6.05;5.10;;;10.60;99.90;;;;;;6300753;22;20024;-90
2022/10/23 04:44:26;;;;;;;17.40;5.25;;;10.60;99.90;;;;;;6295168;22;20062;-91
2022/10/23 04:47:13;;;;;;;7.97;4.22;;;10.60;99.90;;;;;;6281313;22;20024;-92
2022/10/23 04:50:01;;;;;;;9.60;4.78;;;10.50;99.90;;;;;;6280485;22;20047;-91
2022/10/23 04:52:52;;;;;;;7.28;4.70;;;10.50;99.90;;;;;;6277506;22;20077;-91
2022/10/23 04:55:48;;;;;;;7.43;5.03;;;10.50;99.90;;;;;;6279464;22;20054;-92
2022/10/23 04:58:37;;;;;;;21.75;5.53;;;10.60;99.90;;;;;;6280244;22;20331;-92
2022/10/23 05:01:24;;;;;;;10.80;5.47;;;10.50;99.90;;;;;;6278945;22;20074;-92
2022/10/23 05:04:12;;;;;;;10.15;5.13;;;10.50;99.90;;;;;;6280555;22;20037;-91
2022/10/23 05:07:00;;;;;;;8.40;4.78;;;10.30;99.90;;;;;;6278861;22;20016;-91
2022/10/23 05:09:48;;;;;;;6.82;5.07;;;10.20;99.90;;;;;;6280638;22;20019;-91
2022/10/23 05:12:37;;;;;;;5.15;4.10;;;10.20;99.90;;;;;;6283003;22;20083;-91
2022/10/23 05:15:24;;;;;;;13.23;4.90;;;10.20;99.90;;;;;;6285353;22;20098;-91
2022/10/23 05:18:26;;;;;;;9.07;4.97;;;10.20;99.90;;;;;;6288539;22;20043;-91
2022/10/23 05:21:25;;;;;;;4.53;3.55;;;10.20;99.90;;;;;;6278806;22;20399;-92
2022/10/23 05:24:14;;;;;;;8.43;4.60;;;10.20;99.90;;;;;;6281752;22;20028;-90
2022/10/23 05:27:02;;;;;;;6.40;3.95;;;10.40;99.90;;;;;;6282371;22;20051;-91
2022/10/23 05:29:51;;;;;;;6.20;3.85;;;10.50;99.90;;;;;;6281202;22;20418;-91
2022/10/23 05:32:39;;;;;;;7.75;4.28;;;10.50;99.90;;;;;;6280576;22;20019;-90
2022/10/23 05:35:29;;;;;;;10.15;6.72;;;10.60;99.90;;;;;;6281283;22;20556;-91
2022/10/23 05:38:19;;;;;;;8.32;4.72;;;10.50;99.90;;;;;;6279626;22;20079;-92
2022/10/23 05:41:07;;;;;;;12.18;5.22;;;10.60;99.90;;;;;;6279928;22;20076;-91
2022/10/23 05:43:54;;;;;;;7.93;3.58;;;10.60;99.90;;;;;;6281414;22;20408;-90
2022/10/23 06:04:03;;;;;;;7.72;4.30;;;10.40;99.90;;;;;;6277271;22;20375;-91
2022/10/23 07:45:36;;;;;;;3.85;1.52;;;13.80;99.90;;;;;;6262775;22;20019;-89
2022/10/23 07:48:26;;;;;;;1.73;1.40;;;13.90;99.90;;;;;;6256643;22;20035;-85
2022/10/23 07:51:17;;;;;;;1.45;1.35;;;14.10;99.90;;;;;;6277493;22;20020;-87
2022/10/23 07:54:10;;;;;;;3.30;1.33;;;14.30;99.90;;;;;;6257546;22;20102;-87
2022/10/23 08:22:16;;;;;;;3.75;2.10;;;16.70;1.00;;;;;;6072611;23;20030;-88
2022/10/23 08:25:04;;;;;;;6.88;1.42;;;17.20;1.00;;;;;;6076674;23;20073;-90
2022/10/23 08:32:05;;;;;;;2.03;1.02;;;17.20;99.90;;;;;;6156838;23;20032;-89
2022/10/23 08:34:52;;;;;;;3.15;1.67;;;16.80;99.90;;;;;;6230986;22;20019;-87
2022/10/23 08:37:42;;;;;;;4.13;1.77;;;16.50;99.90;;;;;;6255507;22;20020;-86
2022/10/23 08:40:33;;;;;;;3.70;1.63;;;16.00;1.00;;;;;;6255539;22;20024;-88
2022/10/23 08:43:35;;;;;;;2.75;1.40;;;15.80;1.00;;;;;;6258752;22;20036;-89
2022/10/23 09:25:11;;;;;;;4.28;0.82;;;20.30;99.90;;;;;;6276678;22;20114;-87
2022/10/23 09:32:49;;;;;;;;;;;;;;;;;;;;;
2022/10/23 11:38:24;;;;;;;0.85;0.50;;;21.00;26.30;;;;;;6071366;23;20032;-89
2022/10/23 11:41:52;;;;;;;0.60;0.60;;;21.20;28.30;;;;;;6069679;23;20027;-90
2022/10/23 12:34:09;;;;;;;1.15;0.50;;;22.40;20.80;;;;;;6307019;22;20023;-87
2022/10/23 12:40:52;;;;;;;1.08;0.55;;;23.90;44.30;;;;;;6308266;22;20023;-90
2022/10/23 12:43:44;;;;;;;1.65;0.57;;;25.40;16.10;;;;;;6289496;22;20119;-91
2022/10/23 12:46:42;;;;;;;3.70;0.60;;;26.00;10.90;;;;;;6309888;22;20019;-90
2022/10/23 12:49:34;;;;;;;0.88;0.68;;;26.40;9.30;;;;;;6312804;22;20023;-91
2022/10/23 12:56:35;;;;;;;0.90;0.50;;;28.30;3.60;;;;;;6313809;22;20006;-88
2022/10/23 12:59:32;;;;;;;1.45;0.50;;;30.40;1.00;;;;;;6296892;22;20106;-85
2022/10/23 13:02:20;;;;;;;2.97;0.55;;;30.90;1.00;;;;;;6323020;22;20019;-86
2022/10/23 13:05:13;;;;;;;1.85;0.40;;;30.70;1.00;;;;;;6323858;22;20031;-87
2022/10/23 13:08:02;;;;;;;1.95;0.30;;;31.70;1.00;;;;;;6298788;22;20019;-90
2022/10/23 13:10:50;;;;;;;0.43;0.30;;;30.60;1.00;;;;;;6289846;22;20019;-91
2022/10/23 13:13:39;;;;;;;2.63;0.60;;;29.70;1.00;;;;;;6314864;22;20027;-91
2022/10/23 13:16:27;;;;;;;1.40;0.55;;;29.80;1.00;;;;;;6311345;22;20030;-92
2022/10/23 13:19:22;;;;;;;0.63;0.45;;;29.60;1.00;;;;;;6291821;22;20466;-87
2022/10/23 13:22:20;;;;;;;0.77;0.50;;;30.20;1.00;;;;;;6314088;22;20019;-88
2022/10/23 13:28:45;;;;;;;1.35;0.73;;;29.40;1.00;;;;;;6312970;22;20072;-89
2022/10/23 13:31:35;;;;;;;0.80;0.50;;;28.10;1.00;;;;;;6288175;22;20019;-91
2022/10/23 13:34:30;;;;;;;0.60;0.50;;;27.90;1.00;;;;;;6288882;22;20146;-90
2022/10/23 13:37:30;;;;;;;1.17;0.63;;;27.10;1.00;;;;;;6316837;22;20019;-91
2022/10/23 13:40:24;;;;;;;2.63;0.60;;;25.60;1.00;;;;;;6289924;22;20023;-90
2022/10/23 13:43:17;;;;;;;0.77;0.60;;;24.30;1.00;;;;;;6307626;22;20026;-90
2022/10/23 13:46:05;;;;;;;4.30;0.82;;;23.70;1.00;;;;;;6289522;22;20023;-88
2022/10/23 13:48:52;;;;;;;3.05;0.73;;;23.30;1.00;;;;;;6287146;22;20038;-89
2022/10/23 13:51:49;;;;;;;1.13;0.60;;;22.80;1.00;;;;;;6286416;22;20046;-89
2022/10/23 13:54:37;;;;;;;4.72;0.65;;;22.50;1.00;;;;;;6287669;22;20084;-89
2022/10/23 13:57:25;;;;;;;3.55;2.08;;;22.00;1.00;;;;;;6309670;22;20023;-89
2022/10/23 14:00:14;;;;;;;2.88;2.03;;;21.80;1.00;;;;;;6312523;22;20027;-88
2022/10/23 14:03:01;;;;;;;0.85;0.60;;;21.40;1.00;;;;;;6290138;22;20437;-89
2022/10/23 14:05:52;;;;;;;1.90;0.93;;;21.20;1.00;;;;;;6309054;22;20029;-91
2022/10/23 14:08:39;;;;;;;1.77;0.93;;;20.90;1.50;;;;;;6287938;22;20027;-90
2022/10/23 14:11:26;;;;;;;1.90;0.98;;;20.70;5.30;;;;;;6311070;22;20023;-90
2022/10/23 14:14:14;;;;;;;0.85;0.73;;;20.60;18.00;;;;;;6265235;22;20015;-89
2022/10/23 14:17:03;;;;;;;3.00;0.90;;;20.50;27.40;;;;;;6310390;22;20058;-91
2022/10/23 14:19:51;;;;;;;2.63;0.75;;;20.40;32.00;;;;;;6308931;22;20038;-90
2022/10/23 14:22:38;;;;;;;6.05;0.90;;;20.40;42.50;;;;;;6287315;22;20069;-89
2022/10/23 14:25:26;;;;;;;2.22;0.75;;;20.40;42.50;;;;;;6288534;22;20034;-90
2022/10/23 14:28:13;;;;;;;1.67;1.00;;;20.30;50.70;;;;;;6287428;22;20060;-89
2022/10/23 14:31:05;;;;;;;2.10;0.95;;;20.20;61.90;;;;;;6312218;22;20015;-89
2022/10/23 14:33:59;;;;;;;5.97;1.15;;;20.20;72.40;;;;;;6289909;22;20023;-89
2022/10/23 14:36:47;;;;;;;3.72;0.70;;;20.10;81.70;;;;;;6287455;22;20019;-90
2022/10/23 14:39:37;;;;;;;1.75;0.80;;;20.00;88.50;;;;;;6290219;22;20026;-89
2022/10/23 14:42:32;;;;;;;1.65;0.70;;;20.00;92.20;;;;;;6286903;22;20047;-90
2022/10/23 14:45:24;;;;;;;3.63;1.00;;;20.00;92.30;;;;;;6287747;22;20460;-90
2022/10/23 14:48:11;;;;;;;2.40;1.00;;;20.00;95.60;;;;;;6309695;22;20080;-91
2022/10/23 14:51:01;;;;;;;1.75;0.80;;;20.10;93.00;;;;;;6311449;22;20038;-90
2022/10/23 14:53:52;;;;;;;1.23;0.95;;;20.20;82.70;;;;;;6287898;22;20019;-91
2022/10/23 14:56:45;;;;;;;5.57;1.05;;;20.80;81.70;;;;;;6290368;22;20023;-92
2022/10/23 14:59:33;;;;;;;6.40;0.70;;;21.40;75.60;;;;;;6311051;22;20030;-92
2022/10/23 15:02:20;;;;;;;3.63;1.33;;;21.80;52.20;;;;;;6287099;22;20023;-91
2022/10/23 15:05:07;;;;;;;7.78;3.90;;;22.20;41.40;;;;;;6312516;22;20034;-90
2022/10/23 15:07:57;;;;;;;4.07;1.83;;;22.70;37.40;;;;;;6313081;22;20121;-90
2022/10/23 15:10:45;;;;;;;3.63;1.30;;;23.00;28.50;;;;;;6311593;22;20027;-91
2022/10/23 15:13:32;;;;;;;6.60;1.10;;;22.80;36.40;;;;;;6314587;22;20051;-90
2022/10/23 15:16:21;;;;;;;5.07;1.15;;;23.10;26.50;;;;;;6292921;22;20019;-91
2022/10/23 15:19:10;;;;;;;1.95;1.40;;;22.90;27.90;;;;;;6312951;22;20019;-90
2022/10/23 15:22:04;;;;;;;5.05;2.80;;;22.80;28.20;;;;;;6293056;22;20023;-89
2022/10/23 15:24:51;;;;;;;2.70;1.65;;;22.50;29.00;;;;;;6288821;22;20038;-89
2022/10/23 15:27:39;;;;;;;4.15;1.10;;;22.50;28.00;;;;;;6315516;22;20023;-89
2022/10/23 15:30:28;;;;;;;3.58;1.00;;;22.20;29.80;;;;;;6290696;22;20437;-90
2022/10/23 15:33:19;;;;;;;7.60;3.25;;;21.70;40.00;;;;;;6291851;22;20023;-90
2022/10/23 15:36:07;;;;;;;7.88;3.08;;;21.20;62.70;;;;;;6311222;22;20019;-91
2022/10/23 15:38:54;;;;;;;3.38;1.75;;;20.80;84.50;;;;;;6317121;22;20034;-90
2022/10/23 15:41:42;;;;;;;3.95;2.10;;;20.60;90.30;;;;;;6293299;22;20029;-90
2022/10/23 15:44:32;;;;;;;4.05;1.20;;;20.40;99.90;;;;;;6318639;22;20038;-91
2022/10/23 15:47:20;;;;;;;2.10;1.40;;;20.10;99.90;;;;;;6318044;22;20023;-92
2022/10/23 15:50:08;;;;;;;3.33;1.15;;;19.90;99.90;;;;;;6295060;22;20015;-88
2022/10/23 15:52:57;;;;;;;1.67;1.38;;;19.70;99.90;;;;;;6311427;22;20418;-89
2022/10/23 15:55:45;;;;;;;4.63;1.52;;;19.50;99.90;;;;;;6292806;22;20166;-87
2022/10/23 15:58:32;;;;;;;2.92;0.90;;;19.20;99.90;;;;;;6314732;22;20076;-89
2022/10/23 16:01:19;;;;;;;3.75;1.00;;;19.00;99.90;;;;;;6318444;22;20122;-90
2022/10/23 16:04:07;;;;;;;2.45;1.42;;;18.90;99.90;;;;;;6297061;22;20487;-87
2022/10/23 16:06:55;;;;;;;5.72;1.73;;;18.70;99.90;;;;;;6291608;22;20108;-88
2022/10/23 16:09:42;;;;;;;5.18;2.10;;;18.50;99.90;;;;;;6293559;22;20042;-88
2022/10/23 16:12:29;;;;;;;3.88;2.58;;;18.30;99.90;;;;;;6316866;22;20031;-88
2022/10/23 16:15:17;;;;;;;10.40;2.88;;;18.10;99.90;;;;;;6314015;22;20466;-88
2022/10/23 16:18:05;;;;;;;17.98;3.22;;;17.90;99.90;;;;;;6315065;22;20397;-87
2022/10/23 16:20:54;;;;;;;6.30;2.47;;;17.80;99.90;;;;;;6313172;22;20033;-89
2022/10/23 16:23:41;;;;;;;10.00;3.42;;;17.60;99.90;;;;;;6311778;22;20098;-89
2022/10/23 16:26:29;;;;;;;7.65;2.03;;;17.50;1.00;;;;;;6309202;22;20031;-89
2022/10/23 16:29:17;;;;;;;5.13;1.98;;;17.50;1.00;;;;;;6310002;22;20412;-90
2022/10/23 16:32:05;;;;;;;5.15;2.10;;;17.50;1.00;;;;;;6290935;22;20162;-88
2022/10/23 16:34:54;;;;;;;6.45;1.70;;;17.50;1.00;;;;;;6310248;22;20035;-89
2022/10/23 16:37:42;;;;;;;3.17;1.55;;;17.60;99.90;;;;;;6292021;22;20050;-90
2022/10/23 16:40:30;;;;;;;9.40;1.85;;;17.70;99.90;;;;;;6313686;22;20027;-90
2022/10/23 16:43:17;;;;;;;3.65;1.80;;;17.70;99.90;;;;;;6313037;22;20027;-89
2022/10/23 16:46:16;;;;;;;7.18;1.90;;;17.70;99.90;;;;;;6295424;22;20050;-90
2022/10/23 16:49:06;;;;;;;5.20;1.95;;;17.60;99.90;;;;;;6311074;22;20038;-90
2022/10/23 16:51:54;;;;;;;2.50;1.70;;;17.60;1.00;;;;;;6315198;22;20120;-88
2022/10/23 16:54:42;;;;;;;4.03;1.70;;;17.60;1.00;;;;;;6314064;22;20061;-89
2022/10/23 16:57:30;;;;;;;2.72;1.90;;;17.50;1.00;;;;;;6309596;22;20088;-88
2022/10/23 17:00:20;;;;;;;2.63;2.17;;;17.40;1.00;;;;;;6312419;22;20019;-88
2022/10/23 17:03:09;;;;;;;5.97;2.42;;;17.40;1.00;;;;;;6292219;22;20030;-87
2022/10/23 17:06:01;;;;;;;4.28;1.75;;;17.30;1.00;;;;;;6310124;22;20023;-90
2022/10/23 17:08:59;;;;;;;5.55;2.20;;;17.20;1.00;;;;;;6311305;22;20027;-92
2022/10/23 17:11:46;;;;;;;5.03;2.20;;;17.20;1.00;;;;;;6290981;22;20034;-92
2022/10/23 17:14:34;;;;;;;8.18;2.80;;;17.10;1.00;;;;;;6292478;22;20023;-90
2022/10/23 17:17:22;;;;;;;11.77;2.70;;;17.00;23.90;;;;;;6314794;22;20020;-90
2022/10/23 17:20:11;;;;;;;6.50;2.80;;;16.90;43.60;;;;;;6291101;22;20055;-90
2022/10/23 17:23:00;;;;;;;5.10;3.30;;;16.90;98.70;;;;;;6291364;22;20019;-90
2022/10/23 17:25:48;;;;;;;4.22;2.80;;;16.80;79.60;;;;;;6313238;22;20046;-90
2022/10/23 17:28:41;;;;;;;7.47;2.72;;;16.90;1.00;;;;;;6289702;22;20027;-90
2022/10/23 17:31:32;;;;;;;12.73;3.58;;;17.10;1.00;;;;;;6290682;22;20023;-90
2022/10/23 17:34:21;;;;;;;11.20;2.60;;;17.40;99.90;;;;;;6290162;22;20430;-90
2022/10/23 17:37:12;;;;;;;8.50;2.75;;;17.40;99.90;;;;;;6313319;22;20094;-89
2022/10/23 17:40:03;;;;;;;7.38;3.15;;;17.20;99.90;;;;;;6309765;22;20027;-90
2022/10/23 17:42:54;;;;;;;7.53;1.98;;;17.10;99.90;;;;;;6270997;22;20019;-90
2022/10/23 17:45:44;;;;;;;10.05;3.28;;;17.00;99.90;;;;;;6310230;22;20019;-88
2022/10/23 17:48:32;;;;;;;5.53;2.28;;;17.00;99.90;;;;;;6288777;22;20026;-89
2022/10/23 17:51:22;;;;;;;5.55;2.08;;;17.10;99.90;;;;;;6288267;22;20023;-87
2022/10/23 17:54:11;;;;;;;9.68;3.10;;;17.00;1.00;;;;;;6295688;22;20088;-89
2022/10/23 17:56:59;;;;;;;10.35;2.72;;;16.90;1.00;;;;;;6286722;22;20019;-90
2022/10/23 17:59:47;;;;;;;5.82;2.40;;;16.70;1.00;;;;;;6301182;22;20029;-92
2022/10/23 18:02:35;;;;;;;9.13;2.72;;;16.50;1.00;;;;;;6307938;22;20019;-91
2022/10/23 18:05:23;;;;;;;7.85;2.50;;;16.60;1.00;;;;;;6313338;22;20105;-88
2022/10/23 18:08:12;;;;;;;10.10;2.50;;;16.70;99.90;;;;;;6315585;22;20523;-87
2022/10/23 18:10:59;;;;;;;8.07;2.95;;;17.10;99.90;;;;;;6323485;22;20023;-91
2022/10/23 18:13:49;;;;;;;9.13;2.22;;;17.10;99.90;;;;;;6307621;22;20041;-90
2022/10/23 18:16:39;;;;;;;6.20;3.03;;;17.10;99.90;;;;;;6290017;22;20019;-91
2022/10/23 18:19:28;;;;;;;9.77;3.15;;;17.30;99.90;;;;;;6287920;22;20077;-88
2022/10/23 18:22:16;;;;;;;8.48;3.00;;;17.60;99.90;;;;;;6311345;22;20069;-90
2022/10/23 18:25:09;;;;;;;6.50;2.60;;;18.10;99.90;;;;;;6289011;22;20027;-89
2022/10/23 18:27:56;;;;;;;6.90;2.80;;;18.20;99.90;;;;;;6286052;22;20031;-89
2022/10/23 18:30:49;;;;;;;10.82;2.25;;;18.30;99.90;;;;;;6309479;22;20051;-89
2022/10/23 18:33:42;;;;;;;8.10;2.40;;;18.20;99.90;;;;;;6290635;22;20015;-89
2022/10/23 18:36:33;;;;;;;13.55;2.80;;;18.10;99.90;;;;;;6314381;22;20019;-89
2022/10/23 18:39:23;;;;;;;11.52;2.72;;;17.90;99.90;;;;;;6316070;22;20449;-91
2022/10/23 18:42:11;;;;;;;12.13;3.83;;;17.80;99.90;;;;;;6310747;22;20034;-90
2022/10/23 18:44:59;;;;;;;14.77;2.45;;;17.70;99.90;;;;;;6311577;22;20080;-90
2022/10/23 18:47:49;;;;;;;6.35;1.83;;;17.60;99.90;;;;;;6310632;22;20023;-90
2022/10/23 18:50:40;;;;;;;10.35;3.10;;;17.50;99.90;;;;;;6291198;22;20027;-88
2022/10/23 18:53:27;;;;;;;14.10;2.97;;;17.40;99.90;;;;;;6309646;22;20106;-89
2022/10/23 18:56:21;;;;;;;6.75;2.60;;;17.50;99.90;;;;;;6314641;22;20023;-89
2022/10/23 18:59:13;;;;;;;9.00;2.20;;;17.50;99.90;;;;;;6294600;22;20023;-87
2022/10/23 19:02:01;;;;;;;7.47;2.85;;;17.50;99.90;;;;;;6310264;22;20030;-88
2022/10/23 19:04:50;;;;;;;8.15;2.25;;;17.50;99.90;;;;;;6310186;22;20050;-88
2022/10/23 19:07:39;;;;;;;13.52;2.97;;;17.80;99.90;;;;;;6289052;22;20038;-87
2022/10/23 19:10:29;;;;;;;17.58;2.85;;;18.00;99.90;;;;;;6310416;22;20153;-87
2022/10/23 19:13:17;;;;;;;12.82;3.35;;;18.20;99.90;;;;;;6310192;22;20110;-91
2022/10/23 19:16:37;;;;;;;7.80;2.63;;;18.30;99.90;;;;;;6308970;22;20455;-88
2022/10/23 19:19:51;;;;;;;14.48;2.92;;;18.30;99.90;;;;;;6304031;22;20385;-91
2022/10/23 19:22:42;;;;;;;11.52;2.83;;;18.30;99.90;;;;;;6310206;22;20034;-89
2022/10/23 19:25:33;;;;;;;18.42;3.60;;;18.40;99.90;;;;;;6289007;22;20031;-90
2022/10/23 19:28:21;;;;;;;8.48;2.75;;;18.40;99.90;;;;;;6308070;22;20035;-87
2022/10/23 19:31:11;;;;;;;16.65;3.10;;;18.40;99.90;;;;;;6312683;22;20023;-89
2022/10/23 19:33:58;;;;;;;10.05;2.83;;;18.40;99.90;;;;;;6311990;22;20030;-89
2022/10/23 19:36:51;;;;;;;13.60;2.83;;;18.30;99.90;;;;;;6308640;22;20023;-88
2022/10/23 19:39:38;;;;;;;10.15;2.80;;;18.30;99.90;;;;;;6309298;22;20023;-87
2022/10/23 19:42:26;;;;;;;15.77;3.25;;;18.30;99.90;;;;;;6288115;22;20019;-89
2022/10/23 19:45:16;;;;;;;12.30;3.55;;;18.40;99.90;;;;;;6288425;22;20130;-89
2022/10/23 19:48:05;;;;;;;14.43;2.63;;;18.40;99.90;;;;;;6288124;22;20303;-88
2022/10/23 19:50:55;;;;;;;13.40;3.38;;;18.30;98.70;;;;;;6287844;22;20030;-86
2022/10/23 19:53:45;;;;;;;9.25;2.47;;;18.40;97.30;;;;;;6308461;22;20303;-88
2022/10/23 19:56:34;;;;;;;9.40;3.30;;;18.40;96.70;;;;;;6308253;22;20035;-88
2022/10/23 19:59:22;;;;;;;15.88;2.83;;;18.40;95.20;;;;;;6311429;22;20019;-87
2022/10/23 20:02:11;;;;;;;16.90;3.33;;;18.40;95.30;;;;;;6289317;22;20034;-88
2022/10/23 20:04:59;;;;;;;11.00;2.88;;;18.40;93.40;;;;;;6311361;22;20034;-85
2022/10/23 20:07:47;;;;;;;14.55;2.75;;;18.40;92.90;;;;;;6309690;22;20034;-86
2022/10/23 20:10:45;;;;;;;15.13;2.70;;;18.50;91.70;;;;;;6308223;22;20023;-86
2022/10/23 20:13:33;;;;;;;10.57;2.67;;;18.50;90.80;;;;;;6307601;22;20023;-86
2022/10/23 20:16:31;;;;;;;7.35;2.20;;;18.50;90.90;;;;;;6311680;22;20094;-87
2022/10/23 20:19:21;;;;;;;8.07;2.63;;;18.40;92.30;;;;;;6309931;22;20272;-86
2022/10/23 20:22:09;;;;;;;10.52;1.80;;;18.40;92.30;;;;;;6311105;22;20027;-85
2022/10/23 20:24:57;;;;;;;10.68;2.10;;;18.40;92.50;;;;;;6311732;22;20023;-87
2022/10/23 20:27:44;;;;;;;8.55;2.40;;;18.40;92.70;;;;;;6310978;22;20031;-88
2022/10/23 20:30:39;;;;;;;9.48;2.80;;;18.40;93.10;;;;;;6292708;22;20330;-88
2022/10/23 20:33:27;;;;;;;12.82;2.45;;;18.40;94.20;;;;;;6291487;22;20089;-86
2022/10/23 20:36:23;;;;;;;9.30;2.75;;;18.30;96.70;;;;;;6314739;22;20092;-89
2022/10/23 20:39:18;;;;;;;7.07;2.45;;;18.30;98.10;;;;;;6290835;22;20030;-90
2022/10/23 20:42:06;;;;;;;12.70;3.20;;;18.30;98.70;;;;;;6310960;22;20020;-90
2022/10/23 20:44:53;;;;;;;12.00;3.00;;;18.20;99.90;;;;;;6291458;22;20031;-91
2022/10/23 20:47:45;;;;;;;11.65;2.38;;;18.20;99.90;;;;;;6310879;22;20580;-89
2022/10/23 20:50:34;;;;;;;12.23;2.42;;;18.10;99.90;;;;;;6317440;22;20027;-89
2022/10/23 20:53:21;;;;;;;16.52;2.88;;;18.10;99.90;;;;;;6294448;22;20034;-90
2022/10/23 20:56:17;;;;;;;10.80;2.30;;;18.10;99.90;;;;;;6294453;22;20399;-91
2022/10/23 20:59:12;;;;;;;8.27;2.70;;;18.10;99.90;;;;;;6315099;22;20019;-90
2022/10/23 21:02:02;;;;;;;9.77;2.38;;;18.00;99.90;;;;;;6295169;22;20027;-91